Time;durP1;ratioP1;P1;durP2;ratioP2;P2;SDS_P1;SDS_P2;PMS_P1;PMS_P2;Temp;Humidity;BMP_temperature;BMP_pressure;BME280_temperature;BME280_humidity;BME280_pressure;Samples;Min_cycle;Max_cycle;Signal;HPM_P1;HPM_P2
2023/11/09 00:00:46;;;;;;;4.30;2.80;;;;;;;10.82;84.22;98410.63;82036;1298;3011138;-68
2023/11/09 00:03:15;;;;;;;4.40;3.00;;;;;;;10.65;84.77;98410.70;80761;1296;3069942;-68
2023/11/09 00:05:43;;;;;;;3.90;3.00;;;;;;;10.40;85.67;98409.11;82018;1295;3012501;-68
2023/11/09 00:08:10;;;;;;;3.90;2.50;;;;;;;10.23;86.78;98410.35;82055;1295;3011244;-71
2023/11/09 00:10:38;;;;;;;3.80;2.60;;;;;;;10.63;86.15;98399.48;80788;1295;3051919;-68
2023/11/09 00:13:05;;;;;;;6.20;3.50;;;;;;;10.88;84.19;98399.26;82045;1300;3018693;-70
2023/11/09 00:15:32;;;;;;;5.10;3.60;;;;;;;10.93;84.00;98397.30;82034;1297;3011453;-69
2023/11/09 00:18:00;;;;;;;6.60;4.30;;;;;;;10.64;84.71;98388.70;80789;1295;3026803;-72
2023/11/09 00:20:27;;;;;;;5.50;3.40;;;;;;;10.42;85.34;98390.39;82045;1295;3012876;-72
2023/11/09 00:22:54;;;;;;;5.80;3.90;;;;;;;10.28;85.77;98385.84;82021;1295;3011238;-70
2023/11/09 00:25:22;;;;;;;4.80;2.80;;;;;;;10.03;86.85;98392.63;80765;1295;3026500;-69
2023/11/09 00:27:49;;;;;;;5.80;3.50;;;;;;;10.54;85.42;98375.46;82051;1298;3018311;-69
2023/11/09 00:30:16;;;;;;;5.50;3.10;;;;;;;10.62;83.32;98390.61;82021;1301;3011560;-70
2023/11/09 00:32:45;;;;;;;3.60;2.60;;;;;;;10.43;83.76;98400.10;80781;1296;3026693;-68
2023/11/09 00:35:12;;;;;;;4.40;2.80;;;;;;;10.27;84.32;98390.13;82059;1295;3012313;-68
2023/11/09 00:37:38;;;;;;;4.10;2.90;;;;;;;10.12;84.24;98372.86;82026;1298;3011246;-71
2023/11/09 00:40:10;;;;;;;5.80;2.50;;;;;;;9.83;85.33;98364.70;80759;1295;3025719;-70
2023/11/09 00:42:37;;;;;;;4.00;2.90;;;;;;;9.59;86.58;98384.21;82024;1295;3011385;-71
2023/11/09 00:45:06;;;;;;;2.50;1.80;;;;;;;9.49;87.51;98382.46;80759;1297;3052330;-69
2023/11/09 00:47:34;;;;;;;3.40;2.30;;;;;;;10.03;85.90;98375.80;82072;1297;3012997;-71
2023/11/09 00:50:01;;;;;;;3.10;2.40;;;;;;;10.10;84.37;98392.63;82079;1295;3011565;-68
2023/11/09 00:52:29;;;;;;;5.20;3.30;;;;;;;10.04;84.70;98380.65;80796;1295;3055875;-71
2023/11/09 00:54:56;;;;;;;5.50;3.60;;;;;;;9.82;85.64;98375.46;82054;1295;3012636;-70
2023/11/09 00:57:25;;;;;;;5.70;3.70;;;;;;;9.77;85.63;98372.16;82029;1295;3011167;-68
2023/11/09 00:59:53;;;;;;;10.50;6.00;;;;;;;9.53;86.55;98380.58;80794;1295;3052094;-70
2023/11/09 01:02:20;;;;;;;8.60;4.30;;;;;;;9.41;87.66;98399.25;82063;1295;3018242;-69
2023/11/09 01:04:47;;;;;;;5.60;3.40;;;;;;;9.85;86.54;98396.40;82056;1295;3011286;-69
2023/11/09 01:07:16;;;;;;;5.10;3.00;;;;;;;10.22;84.57;98406.23;80740;1295;3026071;-68
2023/11/09 01:09:45;;;;;;;6.00;3.80;;;;;;;10.20;83.57;98402.92;82063;1295;3013158;-69
2023/11/09 01:12:14;;;;;;;8.40;4.40;;;;;;;9.98;84.07;98405.61;81508;1295;3011314;-72
2023/11/09 01:14:43;;;;;;;6.90;3.40;;;;;;;9.68;85.20;98412.86;82049;1295;3013376;-69
2023/11/09 01:17:11;;;;;;;5.50;3.00;;;;;;;9.52;85.51;98438.30;82053;1295;3011353;-71
2023/11/09 01:19:39;;;;;;;5.30;3.50;;;;;;;9.24;86.75;98408.39;80795;1295;3068254;-72
2023/11/09 01:22:06;;;;;;;3.50;2.50;;;;;;;9.27;87.37;98408.14;82050;1295;3011188;-68
2023/11/09 01:24:33;;;;;;;5.90;2.80;;;;;;;9.81;86.25;98407.02;82025;1295;3011525;-71
2023/11/09 01:27:01;;;;;;;5.20;2.90;;;;;;;10.16;83.56;98414.96;80762;1300;3025858;-74
2023/11/09 01:29:27;;;;;;;4.20;2.50;;;;;;;9.86;84.11;98419.05;82051;1295;3012811;-72
2023/11/09 01:31:54;;;;;;;2.60;2.30;;;;;;;9.58;84.97;98439.61;82043;1295;3011500;-71
2023/11/09 01:34:23;;;;;;;6.90;2.80;;;;;;;9.30;86.57;98454.77;80790;1295;3026898;-68
2023/11/09 01:36:51;;;;;;;9.00;3.60;;;;;;;9.22;87.28;98454.98;82036;1295;3017867;-68
2023/11/09 01:39:18;;;;;;;5.80;3.40;;;;;;;9.16;87.56;98446.48;82015;1295;3011783;-69
2023/11/09 01:41:48;;;;;;;7.40;3.60;;;;;;;9.61;87.19;98429.13;80761;1295;3051951;-69
2023/11/09 01:44:15;;;;;;;7.10;3.50;;;;;;;10.11;84.58;98427.39;82014;1295;3011221;-68
2023/11/09 01:46:43;;;;;;;4.90;3.40;;;;;;;10.00;84.22;98432.39;82038;1301;3011489;-68
2023/11/09 01:49:11;;;;;;;6.00;3.00;;;;;;;9.77;84.68;98444.88;80892;1295;3069316;-69
2023/11/09 01:51:38;;;;;;;9.50;4.20;;;;;;;9.65;85.23;98459.63;82060;1295;3011217;-69
2023/11/09 01:54:06;;;;;;;7.10;3.70;;;;;;;9.49;86.27;98465.34;82132;1295;3011257;-70
2023/11/09 01:56:35;;;;;;;7.10;3.20;;;;;;;9.31;86.89;98469.02;80769;1295;3051769;-68
2023/11/09 01:59:03;;;;;;;4.80;1.70;;;;;;;9.34;87.81;98472.30;82043;1295;3012582;-68
2023/11/09 02:01:35;;;;;;;2.70;2.00;;;;;;;9.85;86.48;98468.84;81472;1298;3011382;-68
2023/11/09 02:04:02;;;;;;;4.00;1.90;;;;;;;10.17;84.52;98465.03;82035;1295;3011341;-70
2023/11/09 02:06:31;;;;;;;3.90;1.70;;;;;;;10.26;83.90;98474.58;81495;1294;3011183;-68
2023/11/09 02:08:58;;;;;;;2.50;1.50;;;;;;;10.09;83.88;98471.11;82126;1294;3013657;-69
2023/11/09 02:11:25;;;;;;;2.40;1.50;;;;;;;9.87;84.83;98479.84;82069;1295;3011348;-69
2023/11/09 02:13:53;;;;;;;2.30;1.50;;;;;;;9.67;85.59;98479.59;80748;1295;3026605;-69
2023/11/09 02:16:20;;;;;;;3.00;1.40;;;;;;;9.45;86.52;98480.23;82044;1295;3018417;-70
2023/11/09 02:18:46;;;;;;;2.40;1.40;;;;;;;9.36;87.87;98488.44;81977;1298;3011348;-70
2023/11/09 02:21:16;;;;;;;1.70;1.10;;;;;;;9.74;87.20;98495.54;80901;1295;3026578;-70
2023/11/09 02:23:44;;;;;;;2.80;1.60;;;;;;;10.14;85.44;98488.04;82128;1294;3011311;-70
2023/11/09 02:26:10;;;;;;;2.40;1.70;;;;;;;9.95;85.28;98507.44;82001;1295;3011311;-70
2023/11/09 02:28:38;;;;;;;4.80;2.40;;;;;;;9.89;86.18;98510.69;80878;1295;3053258;-69
2023/11/09 02:31:05;;;;;;;6.20;3.10;;;;;;;9.73;86.38;98510.27;82136;1295;3012496;-70
2023/11/09 02:33:32;;;;;;;9.70;4.20;;;;;;;9.63;86.97;98514.65;82083;1295;3011368;-69
2023/11/09 02:36:00;;;;;;;9.70;4.90;;;;;;;9.39;87.36;98523.17;80853;1294;3027061;-70
2023/11/09 02:38:27;;;;;;;5.60;2.50;;;;;;;9.24;88.46;98525.76;82122;1294;3012958;-71
2023/11/09 02:40:53;;;;;;;7.10;3.20;;;;;;;9.74;87.02;98536.08;82091;1294;3011373;-71
2023/11/09 02:43:21;;;;;;;7.10;2.80;;;;;;;10.11;84.93;98543.24;80878;1295;3026168;-68
2023/11/09 02:45:48;;;;;;;3.90;2.40;;;;;;;10.07;84.42;98550.81;82143;1295;3012586;-69
2023/11/09 02:48:15;;;;;;;2.80;1.80;;;;;;;9.94;84.48;98551.60;82065;1295;3011299;-68
2023/11/09 02:50:43;;;;;;;2.50;1.60;;;;;;;9.75;84.85;98544.57;80832;1296;3026443;-69
2023/11/09 02:53:10;;;;;;;3.30;2.10;;;;;;;9.54;85.76;98529.25;82141;1294;3012680;-68
2023/11/09 02:55:38;;;;;;;6.80;3.30;;;;;;;9.39;86.39;98522.14;82122;1295;3011683;-69
2023/11/09 02:58:06;;;;;;;6.20;3.10;;;;;;;9.27;87.64;98523.34;80848;1296;3052497;-69
2023/11/09 03:00:33;;;;;;;9.60;4.40;;;;;;;9.74;86.18;98520.17;82113;1295;3013224;-70
2023/11/09 03:02:59;;;;;;;11.80;3.90;;;;;;;9.91;85.12;98513.71;82120;1295;3011285;-71
2023/11/09 03:05:27;;;;;;;13.40;5.60;;;;;;;9.76;85.20;98517.44;80871;1295;3026334;-69
2023/11/09 03:07:54;;;;;;;10.30;4.10;;;;;;;9.55;85.77;98516.95;82140;1295;3012931;-70
2023/11/09 03:10:21;;;;;;;10.40;5.00;;;;;;;9.46;86.47;98504.36;82156;1294;3011338;-70
2023/11/09 03:12:49;;;;;;;10.20;4.70;;;;;;;9.21;87.66;98500.15;80844;1295;3026255;-70
2023/11/09 03:15:19;;;;;;;5.30;2.90;;;;;;;9.26;87.09;98507.80;82064;1295;3012623;-70
2023/11/09 03:17:48;;;;;;;9.70;3.50;;;;;;;9.63;85.98;98513.45;81630;1295;3011193;-67
2023/11/09 03:20:15;;;;;;;4.90;2.80;;;;;;;9.81;84.44;98519.13;82145;1296;3018021;-67
2023/11/09 03:22:43;;;;;;;6.10;2.20;;;;;;;9.68;84.07;98525.67;82129;1294;3010854;-69
2023/11/09 03:25:11;;;;;;;3.00;1.30;;;;;;;9.53;84.17;98533.95;80824;1295;3055636;-68
2023/11/09 03:27:38;;;;;;;3.50;1.10;;;;;;;9.35;84.53;98533.39;82116;1294;3018431;-68
2023/11/09 03:30:07;;;;;;;1.60;1.00;;;;;;;9.07;85.64;98530.11;82094;1298;3011299;-70
2023/11/09 03:32:35;;;;;;;1.30;0.70;;;;;;;9.09;86.13;98531.75;80890;1295;3053065;-69
2023/11/09 03:35:04;;;;;;;1.10;0.70;;;;;;;9.54;85.30;98535.76;82167;1295;3012663;-70
2023/11/09 03:37:35;;;;;;;5.10;1.30;;;;;;;9.86;83.39;98542.88;81605;1294;3011381;-69
2023/11/09 03:40:06;;;;;;;3.60;1.30;;;;;;;9.44;83.88;98551.68;82127;1296;3011265;-69
2023/11/09 03:42:34;;;;;;;4.30;1.50;;;;;;;9.41;83.97;98551.16;80864;1294;3055627;-69
2023/11/09 03:45:01;;;;;;;3.90;2.30;;;;;;;9.32;84.34;98537.29;82122;1295;3012590;-68
2023/11/09 03:47:27;;;;;;;7.40;2.50;;;;;;;9.06;85.28;98542.91;82087;1295;3011375;-69
2023/11/09 03:49:55;;;;;;;6.60;2.00;;;;;;;8.96;86.23;98549.58;80864;1295;3025609;-70
2023/11/09 03:52:27;;;;;;;2.90;1.20;;;;;;;8.86;87.66;98560.20;82154;1294;3012558;-70
2023/11/09 03:54:55;;;;;;;2.30;1.10;;;;;;;9.19;86.83;98567.93;80839;1295;3050856;-68
2023/11/09 03:57:22;;;;;;;4.40;1.00;;;;;;;9.61;84.99;98575.10;82134;1294;3012577;-70
2023/11/09 03:59:49;;;;;;;1.80;1.20;;;;;;;9.54;84.12;98574.74;82119;1295;3011200;-70
2023/11/09 04:02:17;;;;;;;2.70;1.70;;;;;;;9.27;84.44;98583.44;80856;1295;3026702;-70
2023/11/09 04:04:44;;;;;;;2.90;1.10;;;;;;;8.96;85.59;98587.29;82158;1295;3011524;-70
2023/11/09 04:07:11;;;;;;;2.90;1.60;;;;;;;8.85;86.11;98574.60;82151;1294;3011217;-70
2023/11/09 04:09:41;;;;;;;7.10;3.20;;;;;;;8.84;86.48;98577.63;80858;1295;3051464;-68
2023/11/09 04:12:08;;;;;;;18.20;6.70;;;;;;;9.38;85.17;98590.02;82132;1295;3012998;-72
2023/11/09 04:14:38;;;;;;;35.40;12.70;;;;;;;9.52;82.85;98586.93;81610;1294;3011481;-69
2023/11/09 04:17:04;;;;;;;39.10;14.40;;;;;;;9.45;82.68;98585.84;82149;1294;3011203;-69
2023/11/09 04:19:31;;;;;;;53.80;18.70;;;;;;;9.33;82.78;98584.73;82071;1295;3011562;-70
2023/11/09 04:21:59;;;;;;;62.50;22.40;;;;;;;9.20;83.27;98580.92;80836;1294;3026925;-68
2023/11/09 04:24:26;;;;;;;57.60;21.40;;;;;;;8.95;83.64;98586.48;82130;1294;3018394;-72
2023/11/09 04:26:53;;;;;;;57.20;19.30;;;;;;;8.75;84.58;98593.04;82134;1294;3011435;-70
2023/11/09 04:29:23;;;;;;;30.00;11.40;;;;;;;8.68;84.72;98600.68;80913;1294;3047928;-70
2023/11/09 04:31:50;;;;;;;27.90;10.20;;;;;;;9.10;83.88;98599.11;82142;1298;3012702;-71
2023/11/09 04:34:16;;;;;;;21.30;7.80;;;;;;;9.63;82.04;98608.41;82164;1293;3011526;-72
2023/11/09 04:36:49;;;;;;;13.80;5.50;;;;;;;9.40;81.33;98611.91;80874;1295;3051841;-69
2023/11/09 04:39:27;;;;;;;12.00;4.50;;;;;;;9.19;81.99;98612.59;82123;1294;3011107;-70
2023/11/09 04:41:59;;;;;;;9.60;3.90;;;;;;;8.88;82.85;98611.58;80870;1294;3051298;-70
2023/11/09 04:44:26;;;;;;;6.60;3.10;;;;;;;8.73;82.78;98609.92;82134;1293;3011642;-69
2023/11/09 04:46:57;;;;;;;5.70;2.30;;;;;;;8.52;83.41;98617.66;80878;1295;3026393;-70
2023/11/09 04:49:24;;;;;;;4.00;1.50;;;;;;;8.30;84.00;98620.44;82186;1294;3011212;-68
2023/11/09 04:51:55;;;;;;;8.10;3.10;;;;;;;8.41;84.54;98620.19;81618;1295;3011545;-71
2023/11/09 04:54:24;;;;;;;12.00;3.80;;;;;;;8.90;82.84;98633.64;82095;1294;3011322;-70
2023/11/09 05:07:34;;;;;;;11.30;5.30;;;;;;;8.45;83.30;98663.60;80887;1294;3053240;-72
2023/11/09 05:10:00;;;;;;;12.60;5.20;;;;;;;8.22;84.47;98674.30;82106;1295;3011591;-69
2023/11/09 05:12:27;;;;;;;10.10;3.70;;;;;;;8.25;85.58;98677.21;82123;1295;3011587;-70
2023/11/09 05:15:00;;;;;;;8.20;3.30;;;;;;;8.87;83.54;98681.50;80891;1295;3067664;-69
2023/11/09 05:17:27;;;;;;;3.50;2.00;;;;;;;9.15;81.50;98692.17;82133;1295;3011000;-69
2023/11/09 05:19:57;;;;;;;2.40;1.20;;;;;;;8.98;81.44;98686.52;81583;1295;3011401;-71
2023/11/09 05:22:26;;;;;;;2.20;1.00;;;;;;;8.85;81.67;98699.58;82125;1295;3012292;-69
2023/11/09 05:24:55;;;;;;;1.70;1.20;;;;;;;8.78;81.61;98705.66;81565;1294;3011162;-69
2023/11/09 05:27:22;;;;;;;1.50;1.00;;;;;;;8.59;82.36;98712.27;82102;1294;3011194;-69
2023/11/09 05:29:49;;;;;;;2.70;1.30;;;;;;;8.33;83.95;98716.55;82076;1295;3011579;-70
2023/11/09 05:32:17;;;;;;;1.60;1.10;;;;;;;8.30;84.48;98722.98;80837;1293;3027642;-68
2023/11/09 05:34:43;;;;;;;1.90;1.00;;;;;;;8.79;83.32;98729.71;82091;1294;3013264;-70
2023/11/09 05:37:10;;;;;;;2.40;1.10;;;;;;;9.08;81.62;98724.45;82106;1294;3011094;-69
2023/11/09 05:39:38;;;;;;;2.90;1.00;;;;;;;9.14;81.27;98734.71;80832;1295;3027267;-70
2023/11/09 05:42:05;;;;;;;1.60;1.00;;;;;;;9.09;81.11;98723.02;82093;1294;3012679;-68
2023/11/09 05:44:32;;;;;;;1.30;1.00;;;;;;;8.78;82.02;98726.25;82100;1295;3011153;-68
2023/11/09 05:47:00;;;;;;;2.10;1.50;;;;;;;8.60;82.69;98733.33;80830;1295;3026658;-69
2023/11/09 05:49:26;;;;;;;2.10;1.20;;;;;;;8.47;83.33;98738.02;82125;1294;3012653;-70
2023/11/09 05:51:53;;;;;;;1.60;1.30;;;;;;;8.39;84.05;98738.11;82112;1294;3011299;-68
2023/11/09 05:54:22;;;;;;;1.90;1.30;;;;;;;8.89;83.12;98739.37;80845;1295;3026482;-72
2023/11/09 05:56:48;;;;;;;3.50;1.30;;;;;;;9.30;80.86;98743.34;82093;1295;3012541;-69
2023/11/09 05:59:15;;;;;;;1.80;1.50;;;;;;;9.32;80.49;98731.29;82125;1294;3010930;-69
2023/11/09 06:01:44;;;;;;;2.00;1.50;;;;;;;9.14;80.96;98739.30;80833;1295;3067451;-69
2023/11/09 06:04:12;;;;;;;2.10;1.20;;;;;;;8.97;81.77;98730.47;82112;1295;3012581;-68
2023/11/09 06:06:39;;;;;;;2.50;1.80;;;;;;;8.91;81.73;98732.06;82163;1295;3011290;-69
2023/11/09 06:09:07;;;;;;;2.40;1.50;;;;;;;8.78;82.29;98737.06;80831;1295;3052769;-72
2023/11/09 06:11:34;;;;;;;2.30;1.70;;;;;;;8.47;83.66;98738.33;82116;1294;3018181;-70
2023/11/09 06:14:07;;;;;;;2.50;1.60;;;;;;;8.62;84.08;98735.10;81558;1294;3011478;-68
2023/11/09 06:16:34;;;;;;;3.50;1.80;;;;;;;9.11;82.46;98736.52;82163;1294;3012572;-68
2023/11/09 06:19:03;;;;;;;4.20;2.30;;;;;;;9.43;81.25;98743.84;82153;1294;3011351;-70
2023/11/09 06:21:32;;;;;;;2.90;1.70;;;;;;;9.20;81.17;98753.73;80879;1293;3055448;-70
2023/11/09 06:23:59;;;;;;;3.20;2.10;;;;;;;8.76;83.06;98752.90;82132;1295;3011189;-71
2023/11/09 06:26:25;;;;;;;4.30;2.10;;;;;;;8.69;83.43;98758.45;82101;1294;3011340;-71
2023/11/09 06:28:54;;;;;;;3.00;2.30;;;;;;;8.49;84.62;98761.95;80873;1294;3051615;-70
2023/11/09 06:31:22;;;;;;;2.90;2.40;;;;;;;8.50;85.04;98759.81;82144;1293;3012926;-70
2023/11/09 06:33:51;;;;;;;3.90;2.50;;;;;;;8.96;83.71;98759.82;82143;1294;3011229;-71
2023/11/09 06:36:20;;;;;;;2.90;2.10;;;;;;;9.15;82.47;98753.17;80872;1295;3055505;-69
2023/11/09 06:38:47;;;;;;;5.50;3.00;;;;;;;9.14;82.39;98766.50;82140;1295;3013105;-72
2023/11/09 06:41:15;;;;;;;4.30;2.90;;;;;;;9.12;82.28;98760.92;82113;1293;3011479;-74
2023/11/09 06:43:43;;;;;;;4.50;2.60;;;;;;;8.98;81.96;98778.21;80880;1294;3052895;-70
2023/11/09 06:46:10;;;;;;;4.10;2.90;;;;;;;8.75;83.35;98777.63;82158;1294;3018156;-72
2023/11/09 06:48:36;;;;;;;6.80;3.00;;;;;;;8.50;84.51;98793.67;82139;1295;3011186;-68
2023/11/09 06:51:05;;;;;;;3.30;2.50;;;;;;;8.77;84.73;98783.05;80850;1295;3026285;-69
2023/11/09 06:53:31;;;;;;;5.70;2.20;;;;;;;9.29;82.33;98791.59;82138;1293;3012473;-69
2023/11/09 06:55:59;;;;;;;4.10;2.70;;;;;;;9.40;81.29;98790.50;82137;1294;3011225;-70
2023/11/09 06:58:27;;;;;;;4.80;2.40;;;;;;;9.25;81.31;98801.51;80876;1295;3025985;-69
2023/11/09 07:00:54;;;;;;;3.90;3.00;;;;;;;9.22;81.20;98802.88;82154;1294;3017897;-70
2023/11/09 07:03:22;;;;;;;4.10;3.00;;;;;;;8.95;81.65;98813.21;82113;1293;3011258;-74
2023/11/09 07:05:51;;;;;;;3.60;2.50;;;;;;;8.71;82.95;98811.59;80828;1295;3057282;-72
2023/11/09 07:08:18;;;;;;;4.30;2.40;;;;;;;8.59;83.29;98813.39;82108;1294;3012737;-70
2023/11/09 07:10:45;;;;;;;4.00;2.40;;;;;;;8.56;83.66;98801.49;82135;1295;3012335;-69
2023/11/09 07:13:12;;;;;;;3.50;2.20;;;;;;;9.20;82.05;98817.02;80807;1295;3051939;-71
2023/11/09 07:15:39;;;;;;;4.30;2.40;;;;;;;9.55;79.59;98824.84;82091;1293;3012644;-70
2023/11/09 07:18:06;;;;;;;2.90;2.10;;;;;;;9.43;79.13;98830.87;82108;1294;3011288;-71
2023/11/09 07:20:35;;;;;;;4.60;2.00;;;;;;;9.37;79.23;98830.23;80848;1295;3027523;-72
2023/11/09 07:23:06;;;;;;;5.90;2.20;;;;;;;9.23;79.58;98830.63;82132;1295;3011269;-70
2023/11/09 07:25:36;;;;;;;3.30;2.30;;;;;;;8.98;80.04;98831.17;80832;1294;3051035;-74
2023/11/09 07:28:04;;;;;;;3.60;2.10;;;;;;;8.77;80.73;98848.89;82151;1294;3013360;-70
2023/11/09 07:30:33;;;;;;;5.00;2.60;;;;;;;8.75;80.85;98837.67;81596;1295;3011443;-68
2023/11/09 07:33:00;;;;;;;9.10;2.50;;;;;;;8.58;81.25;98835.91;82139;1294;3012627;-69
2023/11/09 07:35:29;;;;;;;2.50;1.70;;;;;;;8.57;81.58;98858.34;82133;1294;3011341;-68
2023/11/09 07:37:58;;;;;;;3.00;2.20;;;;;;;9.12;79.59;98835.67;80854;1295;3049241;-67
2023/11/09 07:40:27;;;;;;;6.80;2.30;;;;;;;9.20;78.18;98847.20;82127;1295;3012845;-70
2023/11/09 07:42:57;;;;;;;6.70;2.90;;;;;;;9.13;78.37;98838.42;80861;1298;3052552;-71
2023/11/09 07:45:23;;;;;;;3.80;2.60;;;;;;;9.01;77.78;98849.35;82144;1295;3012463;-70
2023/11/09 07:47:50;;;;;;;7.90;3.40;;;;;;;8.66;78.92;98854.83;82121;1295;3011592;-69
2023/11/09 07:50:19;;;;;;;5.60;2.90;;;;;;;8.61;79.20;98852.16;80862;1294;3054734;-71
2023/11/09 07:52:47;;;;;;;6.30;3.10;;;;;;;8.63;79.27;98838.05;82129;1295;3013076;-68
2023/11/09 07:55:15;;;;;;;5.40;2.90;;;;;;;8.57;79.53;98867.62;82107;1295;3011507;-74
2023/11/09 07:57:45;;;;;;;5.30;2.60;;;;;;;8.47;79.31;98856.67;80876;1295;3052686;-73
2023/11/09 08:00:12;;;;;;;8.40;3.40;;;;;;;8.68;78.88;98855.75;82129;1295;3011318;-71
2023/11/09 08:02:42;;;;;;;10.30;4.30;;;;;;;8.64;78.37;98860.57;81514;1295;3011406;-75
2023/11/09 08:05:13;;;;;;;10.50;4.90;;;;;;;9.19;75.86;98870.30;82106;1298;3012990;-71
2023/11/09 08:07:41;;;;;;;14.30;6.50;;;;;;;9.46;73.84;98866.52;80880;1294;3048633;-71
2023/11/09 08:10:09;;;;;;;12.00;5.60;;;;;;;9.43;73.32;98875.09;82138;1296;3013301;-69
2023/11/09 08:12:37;;;;;;;11.10;5.30;;;;;;;9.36;73.18;98875.71;82111;1295;3011282;-69
2023/11/09 08:15:10;;;;;;;11.40;3.90;;;;;;;9.46;72.23;98878.92;80870;1295;3053181;-69
2023/11/09 08:17:41;;;;;;;8.10;3.50;;;;;;;9.19;73.04;98874.56;82132;1295;3011072;-72
2023/11/09 08:20:13;;;;;;;7.30;3.80;;;;;;;9.12;73.37;98888.09;80855;1295;3053001;-69
2023/11/09 08:22:41;;;;;;;5.60;3.10;;;;;;;8.92;72.98;98895.80;82100;1295;3011367;-71
2023/11/09 08:25:10;;;;;;;5.80;2.90;;;;;;;8.95;73.63;98882.54;80846;1295;3049025;-71
2023/11/09 08:27:40;;;;;;;7.90;2.70;;;;;;;9.00;73.40;98893.55;82125;1294;3012418;-68
2023/11/09 08:30:09;;;;;;;6.20;3.30;;;;;;;9.01;73.17;98895.97;80858;1295;3052343;-69
2023/11/09 08:32:37;;;;;;;9.50;3.80;;;;;;;8.97;73.33;98902.48;82107;1295;3012819;-72
2023/11/09 08:35:13;;;;;;;8.90;4.10;;;;;;;9.16;73.11;98892.92;79523;1293;3524393;-69
2023/11/09 08:37:41;;;;;;;8.20;3.90;;;;;;;9.09;72.38;98894.23;80830;1294;3056185;-70
2023/11/09 08:40:18;;;;;;;8.90;3.90;;;;;;;8.95;72.62;98913.60;82093;1295;3012641;-70
2023/11/09 08:42:48;;;;;;;3.90;2.20;;;;;;;8.94;72.44;98898.64;80846;1295;3049440;-69
2023/11/09 08:45:18;;;;;;;9.70;2.30;;;;;;;8.85;70.71;98928.07;82120;1293;3011522;-69
2023/11/09 08:47:50;;;;;;;6.00;2.20;;;;;;;8.77;70.38;98914.02;80822;1294;3052534;-69
2023/11/09 08:50:17;;;;;;;4.10;1.80;;;;;;;8.79;69.47;98906.40;82106;1295;3011359;-70
2023/11/09 08:52:45;;;;;;;5.60;2.40;;;;;;;8.73;70.62;98920.94;80849;1294;3027250;-69
2023/11/09 08:55:13;;;;;;;5.70;2.20;;;;;;;8.68;70.55;98920.17;82117;1295;3012413;-70
2023/11/09 08:57:39;;;;;;;3.60;1.80;;;;;;;8.61;71.21;98918.85;82139;1294;3011304;-70
2023/11/09 09:00:12;;;;;;;2.90;1.50;;;;;;;8.59;71.47;98922.30;80833;1298;3050009;-70
2023/11/09 09:02:49;;;;;;;9.40;2.50;;;;;;;8.64;71.87;98926.00;82105;1295;3011390;-69
2023/11/09 09:05:19;;;;;;;3.10;1.90;;;;;;;8.68;71.06;98931.15;80863;1295;3053142;-68
2023/11/09 09:07:46;;;;;;;7.80;2.70;;;;;;;8.76;70.77;98938.02;82109;1295;3012567;-69
2023/11/09 09:10:15;;;;;;;4.40;2.70;;;;;;;8.77;70.59;98932.52;82142;1295;3011104;-69
2023/11/09 09:12:44;;;;;;;5.90;2.10;;;;;;;8.93;70.38;98936.65;80862;1295;3049369;-69
2023/11/09 09:15:15;;;;;;;5.20;2.00;;;;;;;8.99;69.54;98939.06;82092;1296;3011445;-72
2023/11/09 09:17:45;;;;;;;3.60;2.00;;;;;;;9.03;69.60;98943.34;80826;1294;3051644;-72
2023/11/09 09:20:13;;;;;;;4.40;1.90;;;;;;;9.10;69.05;98942.21;82115;1295;3012960;-72
2023/11/09 09:22:43;;;;;;;5.40;1.70;;;;;;;9.17;69.14;98958.40;81620;1295;3011198;-72
2023/11/09 09:25:12;;;;;;;3.30;2.00;;;;;;;9.24;69.34;98953.22;82121;1295;3012845;-71
2023/11/09 09:27:46;;;;;;;2.20;1.80;;;;;;;9.21;69.73;98961.28;80846;1295;3049586;-72
2023/11/09 09:30:13;;;;;;;7.80;2.10;;;;;;;9.32;69.81;98959.67;82084;1298;3011369;-71
2023/11/09 09:32:43;;;;;;;6.10;2.80;;;;;;;9.48;69.51;98955.55;80844;1294;3049285;-72
2023/11/09 09:35:10;;;;;;;4.90;3.00;;;;;;;9.64;69.40;98964.70;82091;1299;3012794;-71
2023/11/09 09:37:42;;;;;;;3.40;2.00;;;;;;;9.62;69.49;98981.20;82092;1295;3011048;-71
2023/11/09 09:40:19;;;;;;;3.80;1.70;;;;;;;9.64;68.76;98973.42;80845;1295;3052529;-72
2023/11/09 09:42:49;;;;;;;3.20;1.60;;;;;;;9.57;69.42;98980.99;80839;1294;3056582;-73
2023/11/09 09:45:26;;;;;;;4.40;1.90;;;;;;;9.83;69.49;98976.20;82114;1295;3012477;-77
2023/11/09 09:47:56;;;;;;;6.60;1.40;;;;;;;9.96;69.14;98977.63;80849;1295;3051994;-71
2023/11/09 09:50:24;;;;;;;6.80;1.50;;;;;;;9.80;69.55;98987.09;82105;1295;3011330;-71
2023/11/09 09:52:55;;;;;;;5.30;1.40;;;;;;;9.60;69.43;99009.81;80863;1295;3026711;-73
2023/11/09 09:55:24;;;;;;;3.80;1.60;;;;;;;9.58;69.40;99006.65;82110;1295;3011466;-72
2023/11/09 09:57:52;;;;;;;4.40;1.80;;;;;;;9.61;68.71;98998.45;80837;1295;3067509;-72
2023/11/09 10:00:23;;;;;;;2.50;1.50;;;;;;;9.68;68.14;99013.20;82116;1295;3012386;-71
2023/11/09 10:02:57;;;;;;;4.40;1.80;;;;;;;9.70;67.50;99018.29;80845;1294;3049654;-72
2023/11/09 10:05:25;;;;;;;3.20;1.60;;;;;;;9.71;67.07;99009.64;82126;1294;3011491;-72
2023/11/09 10:07:58;;;;;;;4.40;1.90;;;;;;;9.84;67.35;99004.95;80846;1295;3048488;-71
2023/11/09 10:10:32;;;;;;;2.80;1.60;;;;;;;9.92;67.47;99013.76;82111;1295;3011342;-71
2023/11/09 10:13:06;;;;;;;4.70;1.50;;;;;;;9.91;67.85;99027.48;80849;1296;3052801;-71
2023/11/09 10:15:33;;;;;;;3.20;1.60;;;;;;;9.84;67.99;99034.71;82083;1298;3011454;-71
2023/11/09 10:18:02;;;;;;;3.30;1.50;;;;;;;9.86;68.29;99033.40;80854;1298;3053298;-71
2023/11/09 10:20:29;;;;;;;2.00;1.40;;;;;;;9.81;68.18;99037.39;82095;1298;3012818;-70
2023/11/09 10:22:56;;;;;;;2.40;1.40;;;;;;;9.71;67.91;99056.71;82071;1294;3011158;-70
2023/11/09 10:25:26;;;;;;;4.40;1.30;;;;;;;9.84;68.02;99035.43;80877;1295;3049527;-71
2023/11/09 10:28:00;;;;;;;4.40;1.50;;;;;;;9.86;68.06;99049.66;82096;1295;3010927;-72
2023/11/09 10:30:37;;;;;;;3.00;1.50;;;;;;;10.00;67.76;99046.78;80853;1295;3052196;-71
2023/11/09 10:33:07;;;;;;;2.60;1.20;;;;;;;9.89;67.99;99062.08;80830;1296;3068043;-71
2023/11/09 10:35:35;;;;;;;4.10;1.70;;;;;;;9.94;67.97;99057.52;82124;1295;3011689;-71
2023/11/09 10:38:08;;;;;;;4.00;1.40;;;;;;;10.18;67.27;99060.15;81572;1295;3011292;-71
2023/11/09 10:40:42;;;;;;;4.70;1.50;;;;;;;10.19;66.47;99062.20;82094;1295;3011340;-70
2023/11/09 10:43:14;;;;;;;4.00;1.30;;;;;;;10.34;66.39;99065.29;80839;1296;3053659;-71
2023/11/09 10:45:44;;;;;;;2.20;1.50;;;;;;;10.39;65.98;99085.64;82079;1295;3011425;-71
2023/11/09 10:48:22;;;;;;;3.90;1.60;;;;;;;10.35;65.53;99081.34;80837;1298;3053229;-70
2023/11/09 10:50:55;;;;;;;4.00;1.50;;;;;;;10.44;65.25;99084.62;80848;1298;3052674;-70
2023/11/09 10:53:22;;;;;;;3.40;1.30;;;;;;;10.46;65.32;99077.42;82083;1296;3011299;-70
2023/11/09 10:55:54;;;;;;;3.30;1.50;;;;;;;10.46;65.30;99082.19;80860;1294;3050865;-70
2023/11/09 10:58:21;;;;;;;6.10;1.90;;;;;;;10.25;65.68;99086.83;82119;1293;3011440;-71
2023/11/09 11:00:57;;;;;;;2.90;1.20;;;;;;;10.18;65.77;99101.13;80881;1294;3026694;-70
2023/11/09 11:03:27;;;;;;;2.00;1.00;;;;;;;10.25;65.56;99090.17;80852;1296;3052715;-70
2023/11/09 11:06:03;;;;;;;4.60;1.30;;;;;;;10.29;65.57;99095.01;82094;1298;3012519;-74
2023/11/09 11:08:38;;;;;;;1.70;1.10;;;;;;;10.17;65.52;99101.90;80849;1294;3050550;-72
2023/11/09 11:11:09;;;;;;;4.60;1.40;;;;;;;10.05;66.04;99107.20;81564;1295;3011486;-71
2023/11/09 11:13:40;;;;;;;3.10;1.90;;;;;;;10.04;66.44;99108.15;82038;1295;3011503;-72
2023/11/09 11:16:20;;;;;;;3.80;1.90;;;;;;;9.94;67.02;99119.98;80738;1296;3067639;-71
2023/11/09 11:19:28;;;;;;;2.90;1.70;;;;;;;10.10;67.33;99115.16;80858;1295;3052092;-72
2023/11/09 11:22:30;;;;;;;2.50;1.90;;;;;;;10.19;67.53;99120.17;80705;1294;3056413;-74
2023/11/09 11:25:02;;;;;;;3.80;1.80;;;;;;;10.37;67.02;99115.12;80827;1294;3049420;-70
2023/11/09 11:27:44;;;;;;;3.80;1.90;;;;;;;10.21;67.19;99134.05;82064;1295;3011342;-70
2023/11/09 11:30:25;;;;;;;2.60;1.70;;;;;;;10.26;67.23;99125.63;80858;1295;3049362;-72
2023/11/09 11:32:57;;;;;;;3.00;1.70;;;;;;;10.40;66.81;99120.40;80856;1295;3051614;-70
2023/11/09 11:35:39;;;;;;;3.80;2.10;;;;;;;10.56;65.85;99125.85;82119;1295;3011423;-72
2023/11/09 11:38:16;;;;;;;3.00;2.00;;;;;;;10.55;65.41;99141.65;80894;1295;3069305;-72
2023/11/09 11:40:45;;;;;;;6.10;2.30;;;;;;;10.53;65.53;99135.13;80846;1294;3051714;-69